Latest Weather Observations for Onslow Airport

IDW60801

Issued at 10:23 am WST Tuesday 22 September 2020 (issued every 10 minutes, with the page automatically refreshed every 10 minutes)

About weather observations | Map of weather stations | Latest weather observations for WA | Other Formats
Station Details ID: 005017 Name: ONSLOW AIRPORT Lat: -21.67 Lon: 115.11 Height: 10.5 m
Data from the previous 72 hours. | See also: Recent months at Onslow Airport
Date/Time
WST
Temp
°C
App
Temp
°C
Dew
Point
°C
Rel
Hum
%
Delta-T
°C
Wind Press
QNH
hPa
Press
MSL
hPa
Rain since
9am
mm
Dir  Spd
km/h
Gust
km/h
Spd
kts
Gust
kts
22/10:00am 28.9 22.8 -2.3 13 14.2 E 20 26 11 14 1016.1 1016.1 0.0
22/09:30am 27.4 20.5 -2.4 14 13.4 E 24 30 13 16 1016.3 1016.3 0.0
22/09:00am 26.5 19.5 -3.1 14 13.0 ESE 24 32 13 17 1016.5 1016.5 0.0
22/08:30am 24.3 17.7 -0.1 20 11.1 SE 24 30 13 16 1016.6 1016.6 0.0
22/08:00am 22.1 16.4 0.6 24 9.8 SE 20 26 11 14 1016.5 1016.5 0.0
22/07:30am 20.0 13.9 -2.3 22 9.4 SSE 20 26 11 14 1016.3 1016.3 0.0
22/07:00am 18.2 11.7 -2.1 25 8.4 SSE 22 26 12 14 1016.1 1016.1 0.0
22/06:30am 16.7 10.7 -1.4 29 7.5 SSE 20 26 11 14 1015.9 1015.9 0.0
22/06:00am 16.8 10.6 -0.4 31 7.3 S 22 26 12 14 1015.6 1015.6 0.0
22/05:30am 16.7 10.8 -0.9 30 7.4 S 20 24 11 13 1015.3 1015.3 0.0
22/05:00am 16.8 10.8 -1.3 29 7.6 SSE 20 24 11 13 1014.9 1014.9 0.0
22/04:30am 17.4 11.6 -0.3 30 7.6 SSE 20 26 11 14 1014.7 1014.7 0.0
22/04:00am 17.8 11.1 -1.4 27 8.1 S 24 32 13 17 1014.5 1014.5 0.0
22/03:30am 17.7 11.8 -1.0 28 7.9 S 20 26 11 14 1014.5 1014.5 0.0
22/03:00am 17.4 11.5 -0.8 29 7.7 S 20 26 11 14 1014.5 1014.5 0.0
22/02:30am 17.3 11.3 -1.9 27 8.0 S 20 24 11 13 1015.1 1015.1 0.0
22/02:00am 17.7 11.9 -1.5 27 8.0 S 19 20 10 11 1015.1 1015.1 0.0
22/01:30am 17.9 12.1 -1.3 27 8.1 S 19 20 10 11 1015.2 1015.2 0.0
22/01:00am 18.5 12.6 -1.9 25 8.5 SSW 19 20 10 11 1015.3 1015.3 0.0
22/12:30am 19.1 13.1 -1.9 24 8.9 SSW 20 22 11 12 1015.5 1015.5 0.0
22/12:00am 19.1 13.8 -0.8 26 8.6 SSW 17 20 9 11 1015.7 1015.7 0.0
 
Date/Time
WST
Temp
°C
App
Temp
°C
Dew
Point
°C
Rel
Hum
%
Delta-T
°C
Wind Press
QNH
hPa
Press
MSL
hPa
Rain since
9am
mm
Dir  Spd
km/h
Gust
km/h
Spd
kts
Gust
kts
21/11:30pm 19.7 14.4 -0.3 26 8.8 SSW 17 20 9 11 1015.7 1015.7 0.0
21/11:00pm 20.1 14.4 -1.1 24 9.2 SSW 19 20 10 11 1015.7 1015.7 0.0
21/10:30pm 20.1 15.3 0.0 26 8.9 SSW 15 17 8 9 1015.9 1015.9 0.0
21/10:00pm 20.8 15.4 -1.1 23 9.5 SSW 17 20 9 11 1015.8 1015.8 0.0
21/09:30pm 20.9 16.0 -0.4 24 9.4 SSW 15 17 8 9 1015.9 1015.9 0.0
21/09:00pm 21.8 16.8 -1.5 21 10.1 SSW 15 19 8 10 1015.7 1015.7 0.0
21/08:30pm 22.1 17.8 1.2 25 9.6 SSW 13 15 7 8 1015.4 1015.4 0.0
21/08:00pm 22.8 18.0 0.0 22 10.3 SSW 15 15 8 8 1015.2 1015.2 0.0
21/07:30pm 22.7 18.1 -1.4 20 10.6 SSW 13 17 7 9 1014.9 1014.9 0.0
21/07:00pm 24.6 19.2 -1.3 18 11.6 S 17 20 9 11 1014.6 1014.6 0.0
21/06:30pm 26.0 21.3 3.3 23 11.2 S 17 20 9 11 1014.3 1014.3 0.0
21/06:00pm 27.8 21.6 -5.3 11 14.1 SSE 19 24 10 13 1014.1 1014.1 0.0
21/05:30pm 29.4 23.4 -6.7 9 15.3 S 17 20 9 11 1013.9 1013.9 0.0
21/05:00pm 28.0 24.1 8.8 30 10.5 WNW 19 28 10 15 1013.9 1013.9 0.0
21/04:30pm 28.5 24.5 6.6 25 11.6 WNW 17 24 9 13 1013.8 1013.8 0.0
21/04:00pm 30.7 25.0 -7.3 8 16.1 S 15 22 8 12 1013.9 1013.9 0.0
21/03:30pm 30.7 25.4 -7.3 8 16.1 S 13 20 7 11 1014.0 1014.0 0.0
21/03:00pm 30.6 24.4 -9.1 7 16.3 SSW 17 24 9 13 1014.2 1014.2 0.0
21/02:30pm 29.8 23.3 -8.0 8 15.7 S 19 28 10 15 1014.4 1014.4 0.0
21/02:00pm 31.3 25.3 -6.8 8 16.3 SSE 17 24 9 13 1014.8 1014.8 0.0
21/01:30pm 29.8 23.4 -6.4 9 15.4 SSE 19 28 10 15 1015.2 1015.2 0.0
21/01:00pm 29.2 22.5 -8.4 8 15.4 SSE 20 30 11 16 1015.8 1015.8 0.0
21/12:30pm 28.7 21.7 -7.3 9 15.0 SSE 22 33 12 18 1016.1 1016.1 0.0
21/12:00pm 28.4 20.9 -4.9 11 14.4 SSE 26 35 14 19 1016.6 1016.6 0.0
21/11:30am 29.1 21.8 -3.2 12 14.5 SE 26 35 14 19 1017.1 1017.1 0.0
21/11:00am 26.9 18.7 -3.8 13 13.3 SE 30 44 16 24 1017.6 1017.6 0.0
21/10:30am 25.9 17.3 -2.7 15 12.6 SE 33 48 18 26 1017.9 1017.9 0.0
21/10:00am 25.8 17.3 -1.9 16 12.4 SSE 33 41 18 22 1018.2 1018.2 0.0
21/09:30am 24.1 15.6 -1.7 18 11.4 SE 33 41 18 22 1018.5 1018.5 0.0
21/09:00am 23.4 14.9 -1.5 19 11.0 SE 33 44 18 24 1018.8 1018.8 0.0
21/08:30am 21.5 13.1 -1.1 22 9.9 SSE 33 44 18 24 1018.8 1018.8 0.0
21/08:00am 20.3 12.2 -0.3 25 9.0 SSE 32 39 17 21 1018.7 1018.7 0.0
21/07:30am 18.6 11.5 1.6 32 7.7 S 28 32 15 17 1018.4 1018.4 0.0
21/07:00am 17.2 10.7 2.8 38 6.6 S 26 33 14 18 1018.1 1018.1 0.0
21/06:30am 16.0 10.3 3.1 42 5.9 S 22 28 12 15 1017.9 1017.9 0.0
21/06:00am 16.1 9.7 3.2 42 5.9 S 26 32 14 17 1017.4 1017.4 0.0
21/05:30am 16.2 9.7 2.9 41 6.0 S 26 33 14 18 1017.2 1017.2 0.0
21/05:00am 16.5 9.7 2.9 40 6.2 S 28 35 15 19 1016.5 1016.5 0.0
21/04:30am 16.8 9.4 2.0 37 6.6 S 30 35 16 19 1016.2 1016.2 0.0
21/04:00am 16.9 10.1 0.5 33 7.1 S 26 32 14 17 1016.1 1016.1 0.0
21/03:30am 17.4 10.0 -0.8 29 7.7 SSW 28 35 15 19 1016.1 1016.1 0.0
21/03:00am 17.7 11.5 -0.5 29 7.8 SSW 22 30 12 16 1016.1 1016.1 0.0
21/02:30am 18.1 11.8 -0.7 28 8.0 S 22 28 12 15 1016.1 1016.1 0.0
21/02:00am 19.2 12.7 0.3 28 8.3 S 24 32 13 17 1016.2 1016.2 0.0
21/01:30am 19.5 13.0 0.5 28 8.4 S 24 32 13 17 1016.3 1016.3 0.0
21/01:00am 19.9 13.0 -0.1 26 8.8 S 26 32 14 17 1016.4 1016.4 0.0
21/12:30am 20.3 13.3 -0.3 25 9.1 S 26 33 14 18 1016.4 1016.4 0.0
21/12:00am 20.3 13.8 0.2 26 8.9 S 24 28 13 15 1016.6 1016.6 0.0
 
Date/Time
WST
Temp
°C
App
Temp
°C
Dew
Point
°C
Rel
Hum
%
Delta-T
°C
Wind Press
QNH
hPa
Press
MSL
hPa
Rain since
9am
mm
Dir  Spd
km/h
Gust
km/h
Spd
kts
Gust
kts
20/11:30pm 20.4 13.9 0.3 26 9.0 S 24 30 13 16 1016.5 1016.5 0.0
20/11:00pm 20.8 14.6 -0.5 24 9.4 SSW 22 26 12 14 1016.6 1016.6 0.0
20/10:30pm 21.1 15.4 -0.8 23 9.6 SSW 19 22 10 12 1016.8 1016.8 0.0
20/10:00pm 22.1 15.4 -1.2 21 10.2 S 24 30 13 16 1016.9 1016.9 0.0
20/09:30pm 22.5 15.7 -1.6 20 10.5 S 24 30 13 16 1016.8 1016.8 0.0
20/09:00pm 23.0 15.7 -2.6 18 11.0 S 26 32 14 17 1016.5 1016.5 0.0
20/08:30pm 23.2 17.3 -1.0 20 10.8 SSW 20 26 11 14 1016.2 1016.2 0.0
20/08:00pm 23.5 18.0 0.6 22 10.5 SSW 19 24 10 13 1015.8 1015.8 0.0
20/07:30pm 24.4 18.5 -0.7 19 11.3 SSW 20 26 11 14 1015.4 1015.4 0.0
20/07:00pm 25.1 18.4 -0.9 18 11.8 S 24 28 13 15 1015.0 1015.0 0.0
20/06:30pm 25.9 18.3 -1.8 16 12.4 S 28 32 15 17 1014.5 1014.5 0.0
20/06:00pm 26.9 19.5 -1.0 16 12.8 S 28 35 15 19 1014.3 1014.3 0.0
20/05:30pm 28.1 21.2 -2.9 13 13.9 S 24 33 13 18 1014.0 1014.0 0.0
20/05:00pm 29.0 21.0 -2.2 13 14.2 SSW 30 37 16 20 1013.8 1013.8 0.0
20/04:30pm 29.5 22.1 -4.0 11 14.9 S 26 33 14 18 1013.8 1013.8 0.0
20/04:00pm 29.5 21.9 -5.3 10 15.1 S 26 35 14 19 1013.8 1013.8 0.0
20/03:30pm 29.2 22.0 -5.5 10 15.0 S 24 39 13 21 1013.7 1013.7 0.0
20/03:00pm 29.9 22.1 -3.7 11 15.0 S 28 37 15 20 1014.0 1014.0 0.0
20/02:30pm 29.6 21.8 -3.9 11 14.9 S 28 41 15 22 1014.2 1014.2 0.0
20/02:00pm 29.4 21.1 -1.9 13 14.4 S 32 41 17 22 1014.6 1014.6 0.0
20/01:30pm 28.5 20.8 -2.6 13 14.0 S 28 39 15 21 1015.0 1015.0 0.0
20/01:00pm 28.1 20.8 -0.1 16 13.2 S 28 33 15 18 1015.4 1015.4 0.0
20/12:30pm 28.4 22.0 3.3 20 12.6 S 26 35 14 19 1016.0 1016.0 0.0
20/12:00pm 27.0 20.4 4.1 23 11.5 S 28 35 15 19 1016.4 1016.4 0.0
20/11:30am 26.1 19.8 5.7 27 10.5 S 28 35 15 19 1016.8 1016.8 0.0
20/11:00am 25.4 18.7 5.6 28 10.1 S 30 37 16 20 1017.1 1017.1 0.0
20/10:30am 24.9 18.3 6.1 30 9.7 S 30 35 16 19 1017.2 1017.2 0.0
20/10:00am 23.9 17.3 6.2 32 9.0 SSE 30 37 16 20 1017.4 1017.4 0.0
20/09:30am 22.9 16.4 6.6 35 8.4 SSE 30 37 16 20 1017.6 1017.6 0.0
20/09:00am 22.4 16.1 7.4 38 7.8 SSE 30 41 16 22 1017.6 1017.6 0.0
20/08:30am 20.9 14.1 6.8 40 7.2 SSE 32 41 17 22 1017.6 1017.6 0.0
20/08:00am 20.3 13.0 7.0 42 6.7 SSE 35 44 19 24 1017.5 1017.5 0.0
20/07:30am 19.2 12.3 7.3 46 6.0 S 33 43 18 23 1017.0 1017.0 0.0
20/07:00am 18.5 12.5 8.5 52 5.2 S 30 39 16 21 1016.7 1016.7 0.0
20/06:30am 17.7 12.8 9.8 60 4.2 S 26 33 14 18 1016.4 1016.4 0.0
20/06:00am 17.6 12.3 9.8 60 4.1 S 28 33 15 18 1015.9 1015.9 0.0
20/05:30am 17.9 13.0 10.0 60 4.2 SSW 26 35 14 19 1015.6 1015.6 0.0
20/05:00am 18.1 13.3 10.2 60 4.2 SSW 26 32 14 17 1015.2 1015.2 0.0
20/04:30am 18.5 12.9 10.3 59 4.4 SSW 30 37 16 20 1014.9 1014.9 0.0
20/04:00am 18.8 13.4 10.9 60 4.3 SSW 30 41 16 22 1014.7 1014.7 0.0
20/03:30am 19.2 13.3 11.3 60 4.3 SSW 33 43 18 23 1014.5 1014.5 0.0
20/03:00am 19.8 13.7 11.8 60 4.4 S 35 48 19 26 1014.4 1014.4 0.0
20/02:30am 20.2 14.7 12.4 61 4.4 SSW 33 43 18 23 1014.5 1014.5 0.0
20/02:00am 20.5 15.2 13.2 63 4.2 SSW 33 44 18 24 1014.4 1014.4 0.0
20/01:30am 20.6 16.4 13.6 64 4.0 SSW 28 37 15 20 1014.4 1014.4 0.0
20/01:00am 20.9 16.8 13.8 64 4.1 SSW 28 35 15 19 1014.6 1014.6 0.0
20/12:30am 21.1 16.8 14.3 65 4.0 SSW 30 37 16 20 1014.6 1014.6 0.0
20/12:00am 21.4 16.8 14.6 65 4.0 SSW 32 39 17 21 1014.8 1014.8 0.0
 
Date/Time
WST
Temp
°C
App
Temp
°C
Dew
Point
°C
Rel
Hum
%
Delta-T
°C
Wind Press
QNH
hPa
Press
MSL
hPa
Rain since
9am
mm
Dir  Spd
km/h
Gust
km/h
Spd
kts
Gust
kts
19/11:30pm 21.6 16.9 14.3 63 4.3 SSW 32 39 17 21 1015.0 1015.0 0.0
19/11:00pm 21.9 17.4 13.8 60 4.7 SW 30 37 16 20 1015.1 1015.1 0.0
19/10:30pm 21.9 18.1 13.5 59 4.8 SW 26 32 14 17 1015.1 1015.1 0.0
19/10:00pm 22.3 18.1 13.4 57 5.1 SW 28 35 15 19 1015.0 1015.0 0.0
19/09:30pm 22.8 17.9 13.6 56 5.3 SW 32 44 17 24 1014.9 1014.9 0.0
19/09:00pm 23.3 18.2 13.8 55 5.5 SW 33 43 18 23 1014.6 1014.6 0.0
19/08:30pm 23.5 18.7 13.9 55 5.6 WSW 32 39 17 21 1014.2 1014.2 0.0
19/08:00pm 23.9 20.6 14.0 54 5.8 WSW 24 33 13 18 1013.9 1013.9 0.0
19/07:30pm 24.2 21.2 13.7 52 6.1 WSW 22 33 12 18 1013.6 1013.6 0.0
19/07:00pm 24.6 21.2 12.5 46 7.0 WSW 22 30 12 16 1013.2 1013.2 0.0
19/06:30pm 25.1 21.8 12.7 46 7.2 WSW 22 28 12 15 1012.9 1012.9 0.0
19/06:00pm 26.3 22.2 12.7 43 7.9 WSW 26 37 14 20 1012.6 1012.6 0.0
19/05:30pm 25.4 23.1 17.6 62 4.9 W 26 33 14 18 1012.5 1012.5 0.0
19/05:00pm 25.7 22.2 17.4 60 5.2 W 32 39 17 21 1012.4 1012.4 0.0
19/04:30pm 25.7 21.5 17.1 59 5.3 W 35 43 19 23 1012.1 1012.1 0.0
19/04:00pm 27.2 23.2 16.8 53 6.5 WNW 33 43 18 23 1011.9 1011.9 0.0
19/03:30pm 28.8 25.0 15.7 45 8.1 W 30 43 16 23 1011.9 1011.9 0.0
19/03:00pm 29.9 24.5 12.3 33 10.3 WSW 32 43 17 23 1012.0 1012.0 0.0
19/02:30pm 29.8 24.3 11.8 33 10.5 WSW 32 41 17 22 1012.1 1012.1 0.0
19/02:20pm 30.2 25.4 11.7 32 10.8 WSW 28 46 15 25 1012.2 1012.2 0.0
19/02:00pm 30.1 25.1 12.1 33 10.5 SW 30 39 16 21 1012.2 1012.2 0.0
19/01:30pm 30.1 24.6 10.6 30 11.1 WSW 30 41 16 22 1012.5 1012.5 0.0
19/01:00pm 28.3 24.7 16.2 47 7.5 WNW 30 37 16 20 1013.1 1013.1 0.0
19/12:30pm 28.0 24.8 16.3 49 7.2 WNW 28 35 15 19 1013.7 1013.7 0.0
19/12:00pm 27.6 25.0 16.9 52 6.7 WNW 26 33 14 18 1014.2 1014.2 0.0
19/11:30am 27.5 26.7 17.1 53 6.5 W 17 26 9 14 1014.8 1014.8 0.0
19/11:00am 26.7 25.3 14.5 47 7.3 SW 15 26 8 14 1015.2 1015.2 0.0
19/10:30am 26.0 24.3 14.8 50 6.7 SSW 17 24 9 13 1015.4 1015.4 0.0

Other formats

Comma delimited format used in spreadsheet applications
http://www.bom.gov.au/fwo/IDW60801/IDW60801.95305.axf

JavaScript Object Notation format (JSON) in row-major order
http://www.bom.gov.au/fwo/IDW60801/IDW60801.95305.json

Data quality

Most of these data are generated automatically and are frequently updated. Quality checks on data are not normally performed. It is possible for incorrect values to appear. Refer to information at About Latest Weather Observations and please check the disclaimer before using these data.